createdAt,value
2023-08-11T00:01:36.701Z,1.33
2023-08-11T00:04:05.662Z,1.02
2023-08-11T00:06:33.748Z,0.85
2023-08-11T00:09:01.816Z,1.20
2023-08-11T00:11:31.719Z,1.08
2023-08-11T00:13:59.738Z,1.17
2023-08-11T00:16:27.826Z,1.40
2023-08-11T00:18:56.174Z,0.90
2023-08-11T00:21:24.790Z,1.12
2023-08-11T00:23:52.801Z,1.33
2023-08-11T00:26:21.099Z,1.35
2023-08-11T00:28:50.526Z,1.12
2023-08-11T00:31:19.867Z,1.20
2023-08-11T00:33:52.839Z,1.10
2023-08-11T00:36:21.841Z,0.80
2023-08-11T00:38:50.731Z,1.30
2023-08-11T00:41:18.807Z,1.12
2023-08-11T00:43:46.965Z,1.50
2023-08-11T00:46:17.082Z,0.98
2023-08-11T00:48:45.283Z,1.08
2023-08-11T00:51:16.957Z,1.12
2023-08-11T00:53:46.850Z,1.23
2023-08-11T00:56:15.953Z,1.15
2023-08-11T00:58:45.048Z,1.50
2023-08-11T01:01:13.389Z,1.00
2023-08-11T01:03:44.388Z,1.48
2023-08-11T01:06:22.692Z,1.33
2023-08-11T01:09:00.974Z,1.12
2023-08-11T01:11:35.594Z,1.02
2023-08-11T01:14:12.130Z,1.20
2023-08-11T01:16:40.253Z,1.33
2023-08-11T01:19:12.686Z,0.85
2023-08-11T01:21:43.073Z,1.15
2023-08-11T01:24:12.795Z,1.37
2023-08-11T01:26:41.014Z,1.20
2023-08-11T01:29:09.360Z,1.17
2023-08-11T01:31:37.646Z,1.40
2023-08-11T01:34:06.047Z,0.93
2023-08-11T01:36:34.347Z,1.25
2023-08-11T01:39:02.706Z,1.42
2023-08-11T01:41:32.407Z,1.30
2023-08-11T01:44:01.427Z,1.23
2023-08-11T01:46:31.947Z,1.87
2023-08-11T01:49:00.700Z,1.50
2023-08-11T01:51:29.672Z,1.10
2023-08-11T01:53:58.261Z,1.20
2023-08-11T01:56:26.610Z,1.42
2023-08-11T01:58:58.337Z,1.33
2023-08-11T02:01:26.708Z,1.58
2023-08-11T02:03:55.041Z,1.15
2023-08-11T02:06:23.246Z,1.00
2023-08-11T02:08:51.245Z,0.93
2023-08-11T02:11:19.520Z,0.93
2023-08-11T02:13:47.662Z,1.05
2023-08-11T02:16:17.367Z,1.27
2023-08-11T02:18:45.551Z,1.25
2023-08-11T02:21:13.603Z,1.48
2023-08-11T02:23:41.864Z,1.67
2023-08-11T02:26:09.937Z,1.42
2023-08-11T02:28:38.063Z,0.90
2023-08-11T02:31:06.339Z,1.10
2023-08-11T02:33:35.699Z,1.62
2023-08-11T02:36:05.186Z,1.52
2023-08-11T02:38:34.126Z,1.35
2023-08-11T02:41:02.349Z,1.35
2023-08-11T02:43:30.348Z,1.67
2023-08-11T02:45:58.720Z,0.93
2023-08-11T02:48:26.793Z,1.40
2023-08-11T02:50:56.168Z,1.37
2023-08-11T02:53:24.832Z,1.10
2023-08-11T02:55:53.050Z,1.30
2023-08-11T02:58:21.115Z,1.33
2023-08-11T03:00:51.067Z,1.20
2023-08-11T03:03:19.349Z,1.70
2023-08-11T03:05:47.499Z,1.17
2023-08-11T03:08:17.220Z,1.08
2023-08-11T03:10:55.932Z,1.52
2023-08-11T03:13:29.976Z,0.93
2023-08-11T03:16:00.046Z,1.75
2023-08-11T03:18:28.679Z,1.48
2023-08-11T03:21:09.766Z,1.15
2023-08-11T03:23:46.982Z,1.15
2023-08-11T03:26:15.548Z,1.02
2023-08-11T03:28:43.735Z,1.10
2023-08-11T03:31:12.230Z,1.08
2023-08-11T03:33:40.745Z,0.85
2023-08-11T03:36:09.564Z,1.00
2023-08-11T03:38:38.088Z,1.60
2023-08-11T03:41:07.679Z,1.12
2023-08-11T03:43:35.764Z,1.12
2023-08-11T03:46:04.089Z,1.40
2023-08-11T03:48:32.305Z,1.02
2023-08-11T03:51:01.278Z,1.30
2023-08-11T03:53:31.454Z,1.10
2023-08-11T03:55:59.811Z,1.08
2023-08-11T03:58:30.306Z,1.10
2023-08-11T04:00:59.237Z,1.67
2023-08-11T04:03:29.418Z,1.12
2023-08-11T04:05:57.980Z,1.25
2023-08-11T04:08:27.131Z,1.58
2023-08-11T04:10:57.107Z,1.12
2023-08-11T04:13:25.147Z,1.60
2023-08-11T04:15:54.572Z,1.42
2023-08-11T04:18:22.951Z,1.15
2023-08-11T04:20:51.018Z,1.27
2023-08-11T04:23:19.132Z,1.25
2023-08-11T04:25:47.448Z,1.15
2023-08-11T04:28:16.381Z,1.15
2023-08-11T04:30:45.057Z,1.80
2023-08-11T04:33:15.433Z,1.37
2023-08-11T04:35:43.859Z,1.35
2023-08-11T04:38:12.485Z,0.90
2023-08-11T04:40:41.309Z,1.17
2023-08-11T04:43:09.680Z,2.00
2023-08-11T04:45:38.041Z,1.30
2023-08-11T04:48:07.025Z,1.40
2023-08-11T04:50:36.878Z,1.40
2023-08-11T04:53:05.274Z,1.37
2023-08-11T04:55:34.260Z,1.25
2023-08-11T04:58:03.175Z,1.52
2023-08-11T05:00:31.542Z,1.62
2023-08-11T05:02:59.981Z,1.37
2023-08-11T05:05:28.478Z,1.80
2023-08-11T05:07:57.902Z,1.40
2023-08-11T05:10:26.303Z,1.35
2023-08-11T05:12:54.378Z,1.50
2023-08-11T05:15:22.583Z,1.45
2023-08-11T05:17:51.182Z,1.83
2023-08-11T05:20:19.509Z,1.40
2023-08-11T05:22:48.936Z,1.48
2023-08-11T05:25:19.141Z,1.50
2023-08-11T05:27:48.586Z,1.40
2023-08-11T05:30:16.788Z,1.48
2023-08-11T05:32:45.196Z,1.65
2023-08-11T05:35:14.184Z,1.75
2023-08-11T05:37:42.378Z,1.62
2023-08-11T05:40:11.882Z,1.75
2023-08-11T05:42:41.314Z,1.58
2023-08-11T05:45:10.304Z,1.60
2023-08-11T05:47:38.634Z,1.90
2023-08-11T05:50:08.045Z,1.27
2023-08-11T05:52:36.083Z,1.33
2023-08-11T05:55:04.530Z,1.20
2023-08-11T05:57:33.066Z,1.37
2023-08-11T06:00:04.411Z,1.45
2023-08-11T06:02:41.176Z,1.40
2023-08-11T06:05:10.453Z,1.40
2023-08-11T06:07:39.855Z,1.48
2023-08-11T06:10:10.665Z,1.48
2023-08-11T06:12:38.757Z,1.48
2023-08-11T06:15:09.975Z,1.12
2023-08-11T06:17:38.795Z,1.50
2023-08-11T06:20:11.270Z,1.80
2023-08-11T06:22:39.555Z,1.40
2023-08-11T06:25:08.152Z,1.50
2023-08-11T06:27:36.208Z,1.65
2023-08-11T06:30:05.492Z,1.23
2023-08-11T06:32:35.111Z,1.40
2023-08-11T06:35:04.203Z,1.20
2023-08-11T06:37:32.476Z,1.48
2023-08-11T06:40:00.635Z,1.15
2023-08-11T06:42:28.827Z,1.42
2023-08-11T06:44:57.353Z,1.40
2023-08-11T06:47:25.887Z,1.33
2023-08-11T06:49:55.553Z,1.20
2023-08-11T06:52:23.844Z,1.10
2023-08-11T06:54:51.856Z,1.33
2023-08-11T06:57:21.530Z,1.35
2023-08-11T06:59:51.084Z,0.98
2023-08-11T07:02:19.099Z,1.10
2023-08-11T07:04:47.941Z,1.55
2023-08-11T07:07:17.628Z,1.15
2023-08-11T07:09:45.712Z,1.37
2023-08-11T07:12:13.950Z,1.20
2023-08-11T07:14:43.340Z,1.30
2023-08-11T07:17:12.034Z,1.10
2023-08-11T07:19:40.376Z,1.62
2023-08-11T07:22:08.652Z,1.27
2023-08-11T07:24:38.122Z,1.25
2023-08-11T07:27:06.610Z,1.50
2023-08-11T07:29:35.145Z,1.50
2023-08-11T07:32:05.735Z,1.10
2023-08-11T07:34:33.828Z,1.08
2023-08-11T07:37:02.308Z,1.50
2023-08-11T07:39:31.387Z,1.45
2023-08-11T07:42:03.987Z,1.42
2023-08-11T07:44:34.760Z,1.42
2023-08-11T07:47:03.846Z,2.05
2023-08-11T07:49:32.702Z,1.17
2023-08-11T07:52:00.929Z,1.77
2023-08-11T07:54:29.279Z,1.20
2023-08-11T07:56:57.693Z,1.00
2023-08-11T07:59:27.136Z,1.17
2023-08-11T08:01:55.377Z,1.00
2023-08-11T08:04:23.808Z,1.00
2023-08-11T08:06:52.367Z,0.90
2023-08-11T08:09:20.533Z,1.17
2023-08-11T08:11:49.958Z,0.82
2023-08-11T08:14:18.085Z,1.33
2023-08-11T08:16:47.544Z,0.90
2023-08-11T08:19:18.105Z,0.82
2023-08-11T08:21:47.709Z,0.70
2023-08-11T08:24:16.314Z,0.70
2023-08-11T08:26:45.644Z,0.62
2023-08-11T08:29:13.718Z,0.60
2023-08-11T08:31:42.241Z,0.70
2023-08-11T08:34:11.825Z,0.62
2023-08-11T08:36:39.822Z,0.70
2023-08-11T08:39:09.662Z,0.70
2023-08-11T08:41:40.410Z,0.52
2023-08-11T08:44:08.968Z,0.50
2023-08-11T08:46:38.681Z,0.40
2023-08-11T08:49:16.791Z,0.30
2023-08-11T08:51:46.282Z,0.57
2023-08-11T08:54:14.526Z,0.30
2023-08-11T08:56:42.737Z,0.47
2023-08-11T08:59:11.329Z,0.40
2023-08-11T09:01:39.894Z,0.45
2023-08-11T09:04:10.415Z,0.40
2023-08-11T09:06:40.590Z,0.30
2023-08-11T09:09:11.484Z,0.40
2023-08-11T09:11:40.333Z,0.57
2023-08-11T09:14:10.055Z,0.70
2023-08-11T09:16:39.247Z,0.37
2023-08-11T09:19:09.761Z,0.45
2023-08-11T09:23:08.680Z,0.47
2023-08-11T09:25:36.926Z,0.43
2023-08-11T09:28:05.564Z,0.55
2023-08-11T09:30:34.582Z,0.43
2023-08-11T09:33:04.574Z,0.52
2023-08-11T09:35:33.122Z,0.40
2023-08-11T09:38:01.778Z,0.40
2023-08-11T09:40:31.396Z,0.45
2023-08-11T09:42:59.775Z,0.37
2023-08-11T09:45:28.608Z,0.40
2023-08-11T09:47:57.083Z,0.43
2023-08-11T09:50:28.832Z,0.40
2023-08-11T09:53:00.182Z,0.50
2023-08-11T09:55:32.392Z,0.40
2023-08-11T09:58:02.045Z,0.40
2023-08-11T10:00:31.879Z,0.35
2023-08-11T10:03:03.518Z,0.40
2023-08-11T10:05:35.233Z,0.40
2023-08-11T10:08:05.572Z,0.32
2023-08-11T10:10:39.382Z,0.30
2023-08-11T10:13:15.128Z,0.30
2023-08-11T10:15:44.264Z,0.50
2023-08-11T10:18:12.988Z,0.30
2023-08-11T10:20:41.604Z,0.30
2023-08-11T10:23:12.846Z,0.30
2023-08-11T10:25:42.729Z,0.47
2023-08-11T10:28:13.566Z,0.40
2023-08-11T10:30:42.224Z,0.40
2023-08-11T10:33:11.066Z,0.40
2023-08-11T10:35:51.363Z,0.40
2023-08-11T10:38:26.945Z,0.30
2023-08-11T10:41:02.128Z,0.30
2023-08-11T10:43:33.546Z,0.30
2023-08-11T10:46:23.548Z,0.40
2023-08-11T10:48:53.092Z,0.40
2023-08-11T10:51:33.106Z,0.55
2023-08-11T10:54:12.259Z,0.20
2023-08-11T10:56:43.259Z,0.45
2023-08-11T10:59:17.026Z,0.32
2023-08-11T11:01:47.370Z,0.52
2023-08-11T11:04:16.845Z,0.70
2023-08-11T11:06:46.791Z,0.77
2023-08-11T11:09:15.892Z,0.40
2023-08-11T11:11:45.820Z,0.60
2023-08-11T11:14:15.239Z,0.60
2023-08-11T11:16:44.097Z,0.57
2023-08-11T11:19:12.316Z,0.70
2023-08-11T11:21:41.565Z,0.90
2023-08-11T11:24:10.871Z,0.50
2023-08-11T11:26:39.263Z,0.60
2023-08-11T11:29:08.627Z,0.77
2023-08-11T11:31:39.327Z,0.50
2023-08-11T11:34:07.896Z,0.55
2023-08-11T11:36:36.337Z,0.40
2023-08-11T11:39:06.522Z,0.55
2023-08-11T11:41:34.613Z,0.82
2023-08-11T11:44:03.088Z,0.52
2023-08-11T11:46:34.635Z,0.55
2023-08-11T11:49:09.581Z,0.60
2023-08-11T11:51:44.341Z,0.50
2023-08-11T11:54:12.851Z,0.52
2023-08-11T11:56:47.180Z,0.68
2023-08-11T11:59:23.179Z,0.82
2023-08-11T12:01:52.483Z,0.50
2023-08-11T12:04:20.869Z,0.50
2023-08-11T12:06:48.888Z,0.43
2023-08-11T12:09:16.920Z,0.60
2023-08-11T12:11:45.282Z,0.80
2023-08-11T12:14:14.534Z,0.68
2023-08-11T12:16:43.440Z,0.50
2023-08-11T12:19:13.706Z,0.68
2023-08-11T12:21:41.708Z,0.47
2023-08-11T12:24:14.514Z,0.50
2023-08-11T12:26:42.929Z,0.50
2023-08-11T12:29:10.940Z,0.80
2023-08-11T12:31:39.537Z,0.47
2023-08-11T12:34:07.807Z,0.43
2023-08-11T12:36:37.198Z,0.47
2023-08-11T12:39:08.318Z,0.35
2023-08-11T12:41:36.993Z,0.37
2023-08-11T12:44:05.446Z,0.60
2023-08-11T12:46:33.499Z,0.50
2023-08-11T12:49:01.815Z,0.50
2023-08-11T12:51:29.896Z,0.60
2023-08-11T12:53:59.279Z,0.50
2023-08-11T12:56:27.641Z,0.40
2023-08-11T12:58:55.692Z,0.60
2023-08-11T13:01:24.299Z,0.80
2023-08-11T13:03:52.986Z,0.45
2023-08-11T13:06:21.160Z,0.47
2023-08-11T13:08:51.600Z,0.50
2023-08-11T13:11:21.469Z,0.57
2023-08-11T13:13:49.522Z,0.47
2023-08-11T13:16:18.069Z,0.50
2023-08-11T13:18:46.412Z,0.30
2023-08-11T13:21:14.434Z,0.60
2023-08-11T13:23:42.570Z,0.40
2023-08-11T13:26:11.446Z,0.50
2023-08-11T13:28:41.218Z,0.30
2023-08-11T13:31:09.307Z,0.40
2023-08-11T13:33:37.681Z,0.50
2023-08-11T13:36:06.263Z,0.30
2023-08-11T13:38:34.316Z,0.30
2023-08-11T13:41:02.875Z,0.65
2023-08-11T13:43:30.852Z,0.57
2023-08-11T13:46:02.532Z,0.80
2023-08-11T13:48:31.041Z,0.57
2023-08-11T13:50:59.387Z,0.80
2023-08-11T13:53:27.471Z,0.40
2023-08-11T13:55:55.737Z,0.50
2023-08-11T13:58:23.684Z,0.50
2023-08-11T14:00:51.719Z,0.55
2023-08-11T14:03:21.384Z,0.80
2023-08-11T14:05:49.342Z,0.47
2023-08-11T14:08:17.326Z,0.65
2023-08-11T14:10:45.636Z,0.50
2023-08-11T14:13:13.751Z,0.68
2023-08-11T14:15:41.833Z,0.65
2023-08-11T14:18:10.164Z,0.45
2023-08-11T14:20:39.596Z,0.50
2023-08-11T14:23:07.569Z,0.60
2023-08-11T14:25:38.419Z,0.40
2023-08-11T14:28:06.633Z,0.60
2023-08-11T14:30:35.264Z,0.43
2023-08-11T14:33:03.627Z,0.57
2023-08-11T14:35:32.113Z,0.70
2023-08-11T14:38:01.494Z,0.40
2023-08-11T14:40:29.772Z,0.50
2023-08-11T14:42:57.787Z,0.60
2023-08-11T14:45:25.850Z,0.40
2023-08-11T14:47:54.142Z,0.45
2023-08-11T14:50:22.280Z,0.50
2023-08-11T14:52:50.525Z,0.70
2023-08-11T14:55:20.285Z,0.30
2023-08-11T14:57:48.344Z,0.60
2023-08-11T15:00:17.174Z,0.40
2023-08-11T15:02:46.373Z,0.30
2023-08-11T15:05:14.505Z,0.60
2023-08-11T15:07:43.542Z,0.62
2023-08-11T15:10:12.039Z,0.60
2023-08-11T15:12:41.498Z,0.60
2023-08-11T15:15:10.383Z,0.47
2023-08-11T15:17:38.702Z,0.75
2023-08-11T15:20:10.808Z,0.70
2023-08-11T15:22:39.169Z,0.70
2023-08-11T15:25:08.306Z,0.77
2023-08-11T15:27:38.531Z,0.52
2023-08-11T15:30:09.450Z,0.70
2023-08-11T15:32:37.542Z,0.62
2023-08-11T15:35:06.505Z,0.73
2023-08-11T15:37:34.816Z,0.60
2023-08-11T15:40:05.000Z,0.47
2023-08-11T15:42:33.139Z,0.55
2023-08-11T15:45:01.518Z,0.90
2023-08-11T15:47:31.002Z,0.62
2023-08-11T15:50:01.309Z,0.57
2023-08-11T15:52:30.469Z,0.68
2023-08-11T15:54:58.751Z,0.75
2023-08-11T15:57:27.205Z,0.62
2023-08-11T15:59:55.473Z,0.60
2023-08-11T16:02:24.054Z,0.60
2023-08-11T16:04:54.176Z,1.00
2023-08-11T16:07:22.245Z,0.80
2023-08-11T16:09:50.334Z,0.50
2023-08-11T16:12:18.557Z,0.50
2023-08-11T16:14:46.694Z,0.50
2023-08-11T16:17:14.817Z,0.60
2023-08-11T16:19:43.143Z,0.60
2023-08-11T16:22:13.871Z,0.60
2023-08-11T16:24:42.500Z,0.52
2023-08-11T16:27:10.641Z,0.60
2023-08-11T16:29:42.113Z,0.80
2023-08-11T16:32:11.255Z,0.75
2023-08-11T16:34:39.454Z,0.60
2023-08-11T16:37:07.696Z,1.00
2023-08-11T16:39:37.349Z,0.60
2023-08-11T16:42:06.395Z,0.90
2023-08-11T16:44:34.428Z,0.70
2023-08-11T16:47:02.745Z,0.52
2023-08-11T16:49:31.103Z,0.73
2023-08-11T16:51:59.317Z,0.70
2023-08-11T16:54:27.575Z,0.80
2023-08-11T16:56:57.781Z,0.60
2023-08-11T16:59:28.377Z,0.73
2023-08-11T17:01:57.663Z,0.60
2023-08-11T17:04:25.928Z,0.70
2023-08-11T17:06:53.975Z,0.60
2023-08-11T17:09:22.326Z,0.60
2023-08-11T17:11:50.451Z,0.70
2023-08-11T17:14:19.846Z,0.73
2023-08-11T17:16:48.179Z,0.40
2023-08-11T17:19:16.137Z,0.90
2023-08-11T17:21:44.547Z,0.90
2023-08-11T17:24:12.991Z,0.80
2023-08-11T17:26:41.085Z,0.90
2023-08-11T17:29:09.202Z,0.80
2023-08-11T17:31:38.899Z,0.62
2023-08-11T17:34:07.136Z,1.33
2023-08-11T17:36:36.741Z,0.88
2023-08-11T17:39:05.395Z,0.90
2023-08-11T17:41:33.616Z,0.75
2023-08-11T17:44:01.699Z,0.50
2023-08-11T17:46:30.168Z,0.73
2023-08-11T17:48:59.669Z,0.60
2023-08-11T17:51:28.220Z,0.77
2023-08-11T17:54:09.132Z,0.80
2023-08-11T17:56:38.439Z,0.65
2023-08-11T17:59:07.195Z,0.60
2023-08-11T18:01:35.433Z,0.52
2023-08-11T18:04:07.536Z,0.70
2023-08-11T18:06:37.077Z,0.85
2023-08-11T18:09:06.128Z,0.80
2023-08-11T18:11:36.035Z,0.73
2023-08-11T18:14:04.197Z,0.73
2023-08-11T18:16:33.792Z,1.00
2023-08-11T18:19:01.977Z,0.80
2023-08-11T18:21:31.416Z,0.70
2023-08-11T18:23:59.999Z,0.65
2023-08-11T18:26:30.106Z,0.52
2023-08-11T18:28:58.365Z,0.60
2023-08-11T18:31:28.221Z,0.60
2023-08-11T18:33:56.354Z,0.57
2023-08-11T18:36:24.402Z,0.88
2023-08-11T18:38:54.018Z,0.57
2023-08-11T18:41:22.235Z,0.70
2023-08-11T18:43:50.323Z,0.90
2023-08-11T18:46:20.791Z,0.80
2023-08-11T18:48:50.220Z,0.95
2023-08-11T18:51:18.748Z,0.77
2023-08-11T18:53:48.657Z,0.70
2023-08-11T18:56:19.346Z,0.70
2023-08-11T18:58:48.525Z,0.93
2023-08-11T19:01:17.043Z,0.68
2023-08-11T19:03:46.942Z,0.75
2023-08-11T19:06:17.900Z,0.90
2023-08-11T19:08:49.757Z,1.10
2023-08-11T19:11:23.660Z,0.90
2023-08-11T19:13:52.259Z,0.98
2023-08-11T19:16:20.816Z,1.20
2023-08-11T19:18:49.976Z,1.00
2023-08-11T19:21:18.459Z,0.95
2023-08-11T19:23:47.255Z,1.00
2023-08-11T19:26:15.334Z,1.20
2023-08-11T19:28:44.893Z,1.20
2023-08-11T19:31:13.517Z,1.27
2023-08-11T19:33:41.715Z,1.42
2023-08-11T19:36:09.920Z,0.90
2023-08-11T19:38:43.313Z,1.25
2023-08-11T19:41:12.826Z,1.05
2023-08-11T19:43:41.130Z,1.10
2023-08-11T19:46:12.690Z,1.15
2023-08-11T19:48:42.570Z,1.00
2023-08-11T19:51:10.817Z,0.85
2023-08-11T19:53:39.324Z,1.25
2023-08-11T19:56:08.209Z,1.48
2023-08-11T19:58:36.267Z,0.90
2023-08-11T20:01:08.821Z,1.12
2023-08-11T20:03:39.180Z,0.75
2023-08-11T20:06:07.844Z,1.20
2023-08-11T20:08:35.961Z,1.00
2023-08-11T20:11:04.519Z,1.00
2023-08-11T20:13:32.552Z,1.00
2023-08-11T20:16:04.219Z,0.75
2023-08-11T20:18:32.689Z,0.90
2023-08-11T20:21:02.034Z,1.23
2023-08-11T20:23:30.305Z,0.88
2023-08-11T20:25:58.554Z,0.73
2023-08-11T20:28:27.797Z,0.80
2023-08-11T20:31:01.764Z,1.02
2023-08-11T20:33:30.346Z,1.00
2023-08-11T20:35:59.643Z,1.10
2023-08-11T20:38:29.142Z,1.12
2023-08-11T20:41:00.130Z,1.10
2023-08-11T20:43:28.341Z,1.15
2023-08-11T20:45:56.394Z,0.80
2023-08-11T20:48:24.978Z,1.20
2023-08-11T20:50:53.498Z,0.77
2023-08-11T20:53:22.507Z,1.10
2023-08-11T20:55:52.300Z,1.25
2023-08-11T20:58:20.273Z,1.05
2023-08-11T21:00:48.408Z,1.10
2023-08-11T21:03:16.733Z,1.20
2023-08-11T21:05:44.915Z,1.30
2023-08-11T21:08:18.083Z,1.10
2023-08-11T21:10:47.534Z,1.15
2023-08-11T21:13:17.262Z,1.20
2023-08-11T21:15:45.473Z,1.17
2023-08-11T21:18:13.969Z,1.23
2023-08-11T21:20:42.179Z,1.17
2023-08-11T21:23:10.511Z,0.90
2023-08-11T21:25:38.786Z,1.02
2023-08-11T21:28:07.385Z,1.77
2023-08-11T21:30:37.256Z,1.17
2023-08-11T21:33:05.945Z,1.40
2023-08-11T21:35:34.010Z,1.40
2023-08-11T21:38:02.352Z,1.20
2023-08-11T21:40:30.971Z,1.12
2023-08-11T21:42:59.373Z,1.30
2023-08-11T21:45:27.404Z,1.00
2023-08-11T21:47:58.148Z,1.12
2023-08-11T21:50:27.306Z,1.48
2023-08-11T21:52:57.033Z,1.17
2023-08-11T21:55:26.298Z,0.98
2023-08-11T21:57:54.388Z,1.33
2023-08-11T22:00:22.898Z,1.42
2023-08-11T22:02:51.240Z,1.42
2023-08-11T22:05:29.966Z,1.30
2023-08-11T22:07:58.566Z,1.08
2023-08-11T22:10:26.798Z,1.00
2023-08-11T22:12:54.918Z,0.90
2023-08-11T22:15:23.185Z,1.10
2023-08-11T22:17:51.193Z,1.15
2023-08-11T22:20:19.206Z,1.40
2023-08-11T22:22:48.872Z,1.33
2023-08-11T22:25:20.152Z,1.60
2023-08-11T22:27:49.284Z,1.20
2023-08-11T22:30:18.159Z,0.98
2023-08-11T22:32:48.580Z,1.52
2023-08-11T22:35:16.968Z,1.52
2023-08-11T22:37:45.004Z,1.25
2023-08-11T22:40:14.694Z,1.45
2023-08-11T22:42:43.049Z,1.60
2023-08-11T22:45:11.243Z,1.30
2023-08-11T22:47:39.312Z,1.00
2023-08-11T22:50:10.149Z,1.10
2023-08-11T22:52:38.221Z,1.40
2023-08-11T22:55:07.151Z,1.27
2023-08-11T22:57:36.930Z,1.40
2023-08-11T23:00:09.957Z,1.55
2023-08-11T23:02:38.622Z,1.40
2023-08-11T23:05:09.230Z,1.65
2023-08-11T23:07:40.184Z,1.05
2023-08-11T23:10:10.000Z,1.85
2023-08-11T23:12:39.702Z,1.12
2023-08-11T23:15:08.522Z,1.30
2023-08-11T23:17:37.256Z,1.15
2023-08-11T23:20:06.552Z,1.30
2023-08-11T23:22:36.008Z,1.48
2023-08-11T23:25:04.920Z,1.25
2023-08-11T23:27:32.973Z,1.45
2023-08-11T23:30:03.699Z,1.50
2023-08-11T23:32:33.736Z,1.70
2023-08-11T23:35:02.240Z,1.48
2023-08-11T23:37:30.333Z,1.37
2023-08-11T23:39:59.457Z,1.40
2023-08-11T23:42:28.288Z,1.12
2023-08-11T23:44:56.255Z,1.30
2023-08-11T23:47:26.079Z,1.37
2023-08-11T23:49:54.209Z,1.40
2023-08-11T23:52:24.278Z,1.37
2023-08-11T23:54:54.114Z,1.45
2023-08-11T23:57:23.088Z,1.55
2023-08-11T23:59:51.154Z,1.08
